sensor_id;sensor_type;location;lat;lon;timestamp;pressure;altitude;pressure_sealevel;temperature;humidity
68107;BME280;54892;47.488;19.026;2023-12-20T00:02:10;100160.22;;;-0.59;100.00
68107;BME280;54892;47.488;19.026;2023-12-20T00:05:33;100148.69;;;-0.41;100.00
68107;BME280;54892;47.488;19.026;2023-12-20T00:08:57;100150.03;;;-0.60;100.00
68107;BME280;54892;47.488;19.026;2023-12-20T00:12:20;100142.91;;;-0.58;100.00
68107;BME280;54892;47.488;19.026;2023-12-20T00:15:45;100149.31;;;-0.54;100.00
68107;BME280;54892;47.488;19.026;2023-12-20T00:19:08;100134.94;;;-0.57;100.00
68107;BME280;54892;47.488;19.026;2023-12-20T00:22:31;100129.75;;;-0.57;100.00
68107;BME280;54892;47.488;19.026;2023-12-20T00:25:54;100131.34;;;-0.56;100.00
68107;BME280;54892;47.488;19.026;2023-12-20T00:29:18;100120.62;;;-0.53;100.00
68107;BME280;54892;47.488;19.026;2023-12-20T00:32:42;100123.22;;;-0.68;100.00
68107;BME280;54892;47.488;19.026;2023-12-20T00:36:08;100122.69;;;-0.63;100.00
68107;BME280;54892;47.488;19.026;2023-12-20T00:39:31;100107.41;;;-0.73;100.00
68107;BME280;54892;47.488;19.026;2023-12-20T00:42:54;100098.72;;;-0.65;100.00
68107;BME280;54892;47.488;19.026;2023-12-20T00:46:17;100100.88;;;-0.54;100.00
68107;BME280;54892;47.488;19.026;2023-12-20T00:49:42;100096.66;;;-0.55;100.00
68107;BME280;54892;47.488;19.026;2023-12-20T00:53:05;100080.47;;;-0.57;100.00
68107;BME280;54892;47.488;19.026;2023-12-20T00:56:28;100076.28;;;-0.58;100.00
68107;BME280;54892;47.488;19.026;2023-12-20T00:59:51;100073.69;;;-0.58;100.00
68107;BME280;54892;47.488;19.026;2023-12-20T01:03:14;100070.19;;;-0.50;100.00
68107;BME280;54892;47.488;19.026;2023-12-20T01:06:39;100071.66;;;-0.48;100.00
68107;BME280;54892;47.488;19.026;2023-12-20T01:10:02;100069.56;;;-0.52;100.00
68107;BME280;54892;47.488;19.026;2023-12-20T01:13:26;100060.56;;;-0.71;100.00
68107;BME280;54892;47.488;19.026;2023-12-20T01:16:49;100062.53;;;-0.73;100.00
68107;BME280;54892;47.488;19.026;2023-12-20T01:20:12;100055.03;;;-0.68;100.00
68107;BME280;54892;47.488;19.026;2023-12-20T01:23:36;100055.28;;;-0.78;100.00
68107;BME280;54892;47.488;19.026;2023-12-20T01:26:59;100052.34;;;-0.75;100.00
68107;BME280;54892;47.488;19.026;2023-12-20T01:30:22;100044.66;;;-0.68;100.00
68107;BME280;54892;47.488;19.026;2023-12-20T01:33:46;100027.22;;;-0.59;100.00
68107;BME280;54892;47.488;19.026;2023-12-20T01:37:09;100032.59;;;-0.76;100.00
68107;BME280;54892;47.488;19.026;2023-12-20T01:40:34;100027.50;;;-0.69;100.00
68107;BME280;54892;47.488;19.026;2023-12-20T01:43:57;100015.16;;;-0.67;100.00
68107;BME280;54892;47.488;19.026;2023-12-20T01:47:20;100009.63;;;-0.64;100.00
68107;BME280;54892;47.488;19.026;2023-12-20T01:50:45;100008.53;;;-0.55;100.00
68107;BME280;54892;47.488;19.026;2023-12-20T01:54:08;100002.19;;;-0.67;100.00
68107;BME280;54892;47.488;19.026;2023-12-20T01:57:33;99992.00;;;-0.69;100.00
68107;BME280;54892;47.488;19.026;2023-12-20T02:00:56;99986.81;;;-0.69;100.00
68107;BME280;54892;47.488;19.026;2023-12-20T02:04:20;99979.13;;;-0.62;100.00
68107;BME280;54892;47.488;19.026;2023-12-20T02:07:43;99975.19;;;-0.58;100.00
68107;BME280;54892;47.488;19.026;2023-12-20T02:11:06;99965.34;;;-0.63;100.00
68107;BME280;54892;47.488;19.026;2023-12-20T02:14:31;99957.31;;;-0.68;100.00
68107;BME280;54892;47.488;19.026;2023-12-20T02:17:54;99955.13;;;-0.71;100.00
68107;BME280;54892;47.488;19.026;2023-12-20T02:21:18;99955.63;;;-0.75;100.00
68107;BME280;54892;47.488;19.026;2023-12-20T02:24:42;99952.22;;;-0.61;100.00
68107;BME280;54892;47.488;19.026;2023-12-20T02:28:05;99937.84;;;-0.64;100.00
68107;BME280;54892;47.488;19.026;2023-12-20T02:31:28;99944.62;;;-0.63;100.00
68107;BME280;54892;47.488;19.026;2023-12-20T02:34:52;99937.31;;;-0.74;100.00
68107;BME280;54892;47.488;19.026;2023-12-20T02:38:15;99935.16;;;-0.70;100.00
68107;BME280;54892;47.488;19.026;2023-12-20T02:41:39;99931.84;;;-0.64;100.00
68107;BME280;54892;47.488;19.026;2023-12-20T02:45:03;99925.69;;;-0.63;100.00
68107;BME280;54892;47.488;19.026;2023-12-20T02:48:26;99916.72;;;-0.60;100.00
68107;BME280;54892;47.488;19.026;2023-12-20T02:51:49;99907.22;;;-0.53;100.00
68107;BME280;54892;47.488;19.026;2023-12-20T02:55:12;99905.38;;;-0.59;100.00
68107;BME280;54892;47.488;19.026;2023-12-20T02:58:37;99894.37;;;-0.62;100.00
68107;BME280;54892;47.488;19.026;2023-12-20T03:02:00;99903.38;;;-0.79;100.00
68107;BME280;54892;47.488;19.026;2023-12-20T03:05:23;99896.06;;;-0.90;100.00
68107;BME280;54892;47.488;19.026;2023-12-20T03:08:46;99894.47;;;-0.92;100.00
68107;BME280;54892;47.488;19.026;2023-12-20T03:12:09;99901.13;;;-0.82;100.00
68107;BME280;54892;47.488;19.026;2023-12-20T03:15:34;99897.13;;;-0.85;100.00
68107;BME280;54892;47.488;19.026;2023-12-20T03:18:57;99897.91;;;-0.84;100.00
68107;BME280;54892;47.488;19.026;2023-12-20T03:22:20;99896.50;;;-0.87;100.00
68107;BME280;54892;47.488;19.026;2023-12-20T03:25:43;99904.41;;;-0.95;100.00
68107;BME280;54892;47.488;19.026;2023-12-20T03:29:06;99897.31;;;-0.86;100.00
68107;BME280;54892;47.488;19.026;2023-12-20T03:32:31;99893.44;;;-0.75;100.00
68107;BME280;54892;47.488;19.026;2023-12-20T03:35:54;99899.31;;;-0.67;100.00
68107;BME280;54892;47.488;19.026;2023-12-20T03:39:17;99901.22;;;-0.75;100.00
68107;BME280;54892;47.488;19.026;2023-12-20T03:42:40;99896.66;;;-0.73;100.00
68107;BME280;54892;47.488;19.026;2023-12-20T03:46:03;99898.66;;;-0.90;100.00
68107;BME280;54892;47.488;19.026;2023-12-20T03:49:28;99897.34;;;-1.01;100.00
68107;BME280;54892;47.488;19.026;2023-12-20T03:52:51;99889.41;;;-1.15;100.00
68107;BME280;54892;47.488;19.026;2023-12-20T03:56:14;99895.47;;;-1.08;100.00
68107;BME280;54892;47.488;19.026;2023-12-20T03:59:38;99897.25;;;-1.08;100.00
68107;BME280;54892;47.488;19.026;2023-12-20T04:03:01;99891.47;;;-1.25;100.00
68107;BME280;54892;47.488;19.026;2023-12-20T04:06:26;99885.75;;;-1.20;100.00
68107;BME280;54892;47.488;19.026;2023-12-20T04:09:49;99880.31;;;-1.11;100.00
68107;BME280;54892;47.488;19.026;2023-12-20T04:13:13;99870.72;;;-1.10;100.00
68107;BME280;54892;47.488;19.026;2023-12-20T04:16:36;99881.53;;;-1.07;100.00
68107;BME280;54892;47.488;19.026;2023-12-20T04:19:59;99875.00;;;-1.02;100.00
68107;BME280;54892;47.488;19.026;2023-12-20T04:23:23;99875.00;;;-0.87;100.00
68107;BME280;54892;47.488;19.026;2023-12-20T04:26:46;99874.25;;;-0.81;100.00
68107;BME280;54892;47.488;19.026;2023-12-20T04:30:10;99860.78;;;-0.92;100.00
68107;BME280;54892;47.488;19.026;2023-12-20T04:33:33;99851.47;;;-0.86;100.00
68107;BME280;54892;47.488;19.026;2023-12-20T04:36:56;99857.84;;;-0.88;100.00
68107;BME280;54892;47.488;19.026;2023-12-20T04:40:21;99849.44;;;-0.90;100.00
68107;BME280;54892;47.488;19.026;2023-12-20T04:43:44;99840.16;;;-1.00;100.00
68107;BME280;54892;47.488;19.026;2023-12-20T04:47:07;99843.91;;;-1.02;100.00
68107;BME280;54892;47.488;19.026;2023-12-20T04:50:30;99839.84;;;-1.12;100.00
68107;BME280;54892;47.488;19.026;2023-12-20T04:53:54;99822.66;;;-0.98;100.00
68107;BME280;54892;47.488;19.026;2023-12-20T04:57:18;99815.84;;;-0.99;100.00
68107;BME280;54892;47.488;19.026;2023-12-20T05:00:41;99806.75;;;-0.95;100.00
68107;BME280;54892;47.488;19.026;2023-12-20T05:04:05;99804.72;;;-0.99;100.00
68107;BME280;54892;47.488;19.026;2023-12-20T05:07:28;99786.69;;;-0.86;100.00
68107;BME280;54892;47.488;19.026;2023-12-20T05:10:51;99794.84;;;-0.89;100.00
68107;BME280;54892;47.488;19.026;2023-12-20T05:14:16;99787.31;;;-0.84;100.00
68107;BME280;54892;47.488;19.026;2023-12-20T05:17:39;99778.34;;;-0.81;100.00
68107;BME280;54892;47.488;19.026;2023-12-20T05:21:02;99780.94;;;-0.81;100.00
68107;BME280;54892;47.488;19.026;2023-12-20T05:24:26;99773.59;;;-0.78;100.00
68107;BME280;54892;47.488;19.026;2023-12-20T05:27:49;99775.81;;;-0.74;100.00
68107;BME280;54892;47.488;19.026;2023-12-20T05:31:13;99788.22;;;-0.70;100.00
68107;BME280;54892;47.488;19.026;2023-12-20T05:34:37;99797.81;;;-0.70;100.00
68107;BME280;54892;47.488;19.026;2023-12-20T05:38:00;99805.16;;;-0.74;100.00
68107;BME280;54892;47.488;19.026;2023-12-20T05:41:23;99806.94;;;-0.74;100.00
68107;BME280;54892;47.488;19.026;2023-12-20T05:44:46;99807.91;;;-0.97;100.00
68107;BME280;54892;47.488;19.026;2023-12-20T05:48:11;99804.78;;;-0.93;100.00
68107;BME280;54892;47.488;19.026;2023-12-20T05:51:34;99786.50;;;-0.84;100.00
68107;BME280;54892;47.488;19.026;2023-12-20T05:54:57;99781.31;;;-1.06;100.00
68107;BME280;54892;47.488;19.026;2023-12-20T05:58:23;99773.34;;;-1.26;100.00
68107;BME280;54892;47.488;19.026;2023-12-20T06:01:46;99763.84;;;-1.19;100.00
68107;BME280;54892;47.488;19.026;2023-12-20T06:05:11;99761.69;;;-1.15;100.00
68107;BME280;54892;47.488;19.026;2023-12-20T06:08:34;99756.03;;;-1.04;100.00
68107;BME280;54892;47.488;19.026;2023-12-20T06:11:57;99761.72;;;-0.94;100.00
68107;BME280;54892;47.488;19.026;2023-12-20T06:15:20;99750.22;;;-0.84;100.00
68107;BME280;54892;47.488;19.026;2023-12-20T06:18:43;99745.03;;;-0.84;100.00
68107;BME280;54892;47.488;19.026;2023-12-20T06:22:08;99749.81;;;-0.88;100.00
68107;BME280;54892;47.488;19.026;2023-12-20T06:25:31;99748.25;;;-0.82;100.00
68107;BME280;54892;47.488;19.026;2023-12-20T06:28:54;99753.28;;;-0.81;100.00
68107;BME280;54892;47.488;19.026;2023-12-20T06:32:17;99758.06;;;-0.78;100.00
68107;BME280;54892;47.488;19.026;2023-12-20T06:35:40;99752.28;;;-0.80;100.00
68107;BME280;54892;47.488;19.026;2023-12-20T06:39:05;99750.28;;;-0.78;100.00
68107;BME280;54892;47.488;19.026;2023-12-20T06:42:28;99761.88;;;-0.73;100.00
68107;BME280;54892;47.488;19.026;2023-12-20T06:45:52;99776.41;;;-0.79;100.00
68107;BME280;54892;47.488;19.026;2023-12-20T06:49:15;99791.25;;;-0.88;100.00
68107;BME280;54892;47.488;19.026;2023-12-20T06:52:38;99796.28;;;-0.86;100.00
68107;BME280;54892;47.488;19.026;2023-12-20T06:56:03;99804.63;;;-0.84;100.00
68107;BME280;54892;47.488;19.026;2023-12-20T06:59:26;99808.97;;;-0.92;100.00
68107;BME280;54892;47.488;19.026;2023-12-20T07:02:50;99807.91;;;-0.97;100.00
68107;BME280;54892;47.488;19.026;2023-12-20T07:06:13;99811.97;;;-0.88;100.00
68107;BME280;54892;47.488;19.026;2023-12-20T07:09:38;99804.09;;;-0.80;100.00
68107;BME280;54892;47.488;19.026;2023-12-20T07:13:04;99808.31;;;-0.79;100.00
68107;BME280;54892;47.488;19.026;2023-12-20T07:16:28;99797.31;;;-0.81;100.00
68107;BME280;54892;47.488;19.026;2023-12-20T07:19:51;99795.00;;;-0.69;100.00
68107;BME280;54892;47.488;19.026;2023-12-20T07:23:14;99796.44;;;-0.66;100.00
68107;BME280;54892;47.488;19.026;2023-12-20T07:26:37;99793.91;;;-0.59;100.00
68107;BME280;54892;47.488;19.026;2023-12-20T07:30:03;99793.59;;;-0.50;100.00
68107;BME280;54892;47.488;19.026;2023-12-20T07:33:26;99792.72;;;-0.57;100.00
68107;BME280;54892;47.488;19.026;2023-12-20T07:36:49;99794.38;;;-0.49;100.00
68107;BME280;54892;47.488;19.026;2023-12-20T07:40:12;99798.41;;;-0.68;100.00
68107;BME280;54892;47.488;19.026;2023-12-20T07:43:36;99811.75;;;-0.71;100.00
68107;BME280;54892;47.488;19.026;2023-12-20T07:47:00;99799.59;;;-0.71;100.00
68107;BME280;54892;47.488;19.026;2023-12-20T07:50:24;99805.06;;;-0.59;100.00
68107;BME280;54892;47.488;19.026;2023-12-20T07:53:48;99792.22;;;-0.46;100.00
68107;BME280;54892;47.488;19.026;2023-12-20T07:57:11;99788.88;;;-0.39;100.00
68107;BME280;54892;47.488;19.026;2023-12-20T08:00:34;99784.94;;;-0.35;100.00
68107;BME280;54892;47.488;19.026;2023-12-20T08:03:59;99769.59;;;-0.58;100.00
68107;BME280;54892;47.488;19.026;2023-12-20T08:07:22;99773.59;;;-0.56;100.00
68107;BME280;54892;47.488;19.026;2023-12-20T08:10:45;99764.16;;;-0.42;100.00
68107;BME280;54892;47.488;19.026;2023-12-20T08:14:09;99766.63;;;-0.27;100.00
68107;BME280;54892;47.488;19.026;2023-12-20T08:17:32;99769.31;;;-0.13;100.00
68107;BME280;54892;47.488;19.026;2023-12-20T08:20:56;99766.34;;;-0.10;100.00
68107;BME280;54892;47.488;19.026;2023-12-20T08:24:19;99773.56;;;0.01;100.00
68107;BME280;54892;47.488;19.026;2023-12-20T08:27:42;99772.22;;;0.05;100.00
68107;BME280;54892;47.488;19.026;2023-12-20T08:31:06;99767.13;;;-0.17;100.00
68107;BME280;54892;47.488;19.026;2023-12-20T08:34:29;99774.72;;;-0.08;100.00
68107;BME280;54892;47.488;19.026;2023-12-20T08:37:53;99778.31;;;-0.09;100.00
68107;BME280;54892;47.488;19.026;2023-12-20T08:41:17;99781.75;;;-0.02;100.00
68107;BME280;54892;47.488;19.026;2023-12-20T08:44:42;99768.56;;;-0.07;100.00
68107;BME280;54892;47.488;19.026;2023-12-20T08:48:06;99776.47;;;-0.16;100.00
68107;BME280;54892;47.488;19.026;2023-12-20T08:51:30;99785.34;;;-0.03;100.00
68107;BME280;54892;47.488;19.026;2023-12-20T08:54:54;99783.72;;;-0.11;100.00
68107;BME280;54892;47.488;19.026;2023-12-20T08:58:18;99783.16;;;0.01;100.00
68107;BME280;54892;47.488;19.026;2023-12-20T09:01:41;99776.28;;;0.14;100.00
68107;BME280;54892;47.488;19.026;2023-12-20T09:05:04;99777.78;;;0.02;100.00
68107;BME280;54892;47.488;19.026;2023-12-20T09:08:27;99780.81;;;0.06;100.00
68107;BME280;54892;47.488;19.026;2023-12-20T09:11:52;99781.25;;;0.16;100.00
68107;BME280;54892;47.488;19.026;2023-12-20T09:15:15;99782.69;;;0.25;100.00
68107;BME280;54892;47.488;19.026;2023-12-20T09:18:38;99780.13;;;0.32;100.00
68107;BME280;54892;47.488;19.026;2023-12-20T09:22:01;99771.56;;;0.38;100.00
68107;BME280;54892;47.488;19.026;2023-12-20T09:25:24;99779.16;;;0.40;100.00
68107;BME280;54892;47.488;19.026;2023-12-20T09:28:49;99768.25;;;0.51;100.00
68107;BME280;54892;47.488;19.026;2023-12-20T09:32:12;99765.28;;;0.61;100.00
68107;BME280;54892;47.488;19.026;2023-12-20T09:35:35;99752.13;;;0.76;100.00
68107;BME280;54892;47.488;19.026;2023-12-20T09:38:58;99747.91;;;0.68;99.73
68107;BME280;54892;47.488;19.026;2023-12-20T09:42:30;99746.69;;;0.71;99.63
68107;BME280;54892;47.488;19.026;2023-12-20T09:46:05;99738.34;;;0.69;98.89
68107;BME280;54892;47.488;19.026;2023-12-20T09:49:29;99729.47;;;0.56;100.00
68107;BME280;54892;47.488;19.026;2023-12-20T09:52:53;99728.34;;;0.72;100.00
68107;BME280;54892;47.488;19.026;2023-12-20T09:56:18;99729.34;;;0.85;100.00
68107;BME280;54892;47.488;19.026;2023-12-20T09:59:41;99720.19;;;0.96;100.00
68107;BME280;54892;47.488;19.026;2023-12-20T10:03:06;99714.19;;;1.02;99.30
68107;BME280;54892;47.488;19.026;2023-12-20T10:06:30;99710.41;;;1.04;99.53
68107;BME280;54892;47.488;19.026;2023-12-20T10:09:54;99710.19;;;1.13;98.73
68107;BME280;54892;47.488;19.026;2023-12-20T10:13:18;99710.59;;;1.10;98.96
68107;BME280;54892;47.488;19.026;2023-12-20T10:16:41;99705.59;;;1.21;98.96
68107;BME280;54892;47.488;19.026;2023-12-20T10:20:07;99691.59;;;1.23;99.20
68107;BME280;54892;47.488;19.026;2023-12-20T10:23:31;99695.63;;;1.32;99.29
68107;BME280;54892;47.488;19.026;2023-12-20T10:27:01;99693.00;;;1.45;98.86
68107;BME280;54892;47.488;19.026;2023-12-20T10:30:27;99662.97;;;1.49;97.78
68107;BME280;54892;47.488;19.026;2023-12-20T10:33:50;99662.72;;;1.64;97.00
68107;BME280;54892;47.488;19.026;2023-12-20T10:37:14;99650.16;;;1.48;97.96
68107;BME280;54892;47.488;19.026;2023-12-20T10:40:38;99655.94;;;1.57;97.76
68107;BME280;54892;47.488;19.026;2023-12-20T10:44:03;99644.75;;;1.63;97.98
68107;BME280;54892;47.488;19.026;2023-12-20T10:47:28;99649.09;;;1.76;97.46
68107;BME280;54892;47.488;19.026;2023-12-20T10:50:54;99640.63;;;1.87;97.18
68107;BME280;54892;47.488;19.026;2023-12-20T10:54:19;99641.53;;;2.13;96.00
68107;BME280;54892;47.488;19.026;2023-12-20T10:57:44;99632.12;;;2.12;95.96
68107;BME280;54892;47.488;19.026;2023-12-20T11:01:13;99620.25;;;2.23;96.13
68107;BME280;54892;47.488;19.026;2023-12-20T11:04:40;99631.00;;;2.33;95.35
68107;BME280;54892;47.488;19.026;2023-12-20T11:08:10;99626.59;;;2.34;95.55
68107;BME280;54892;47.488;19.026;2023-12-20T11:11:43;99626.31;;;2.49;94.67
68107;BME280;54892;47.488;19.026;2023-12-20T11:15:09;99610.34;;;2.70;94.81
68107;BME280;54892;47.488;19.026;2023-12-20T11:18:33;99602.16;;;2.60;94.60
68107;BME280;54892;47.488;19.026;2023-12-20T11:21:56;99586.00;;;2.77;94.44
68107;BME280;54892;47.488;19.026;2023-12-20T11:25:20;99576.22;;;2.72;95.01
68107;BME280;54892;47.488;19.026;2023-12-20T11:28:44;99574.25;;;2.93;93.88
68107;BME280;54892;47.488;19.026;2023-12-20T11:32:28;99563.59;;;2.94;94.28
68107;BME280;54892;47.488;19.026;2023-12-20T11:35:55;99540.06;;;3.01;93.48
68107;BME280;54892;47.488;19.026;2023-12-20T11:39:20;99542.34;;;3.16;92.19
68107;BME280;54892;47.488;19.026;2023-12-20T11:42:45;99546.31;;;3.18;92.62
68107;BME280;54892;47.488;19.026;2023-12-20T11:46:12;99551.69;;;3.42;91.16
68107;BME280;54892;47.488;19.026;2023-12-20T11:49:35;99551.31;;;3.20;92.25
68107;BME280;54892;47.488;19.026;2023-12-20T11:52:58;99558.84;;;3.28;92.39
68107;BME280;54892;47.488;19.026;2023-12-20T11:56:21;99546.81;;;3.46;93.82
68107;BME280;54892;47.488;19.026;2023-12-20T11:59:45;99543.56;;;4.11;95.92
68107;BME280;54892;47.488;19.026;2023-12-20T12:03:09;99544.44;;;4.71;96.82
68107;BME280;54892;47.488;19.026;2023-12-20T12:06:32;99537.56;;;5.18;94.83
68107;BME280;54892;47.488;19.026;2023-12-20T12:09:56;99527.34;;;5.57;92.20
68107;BME280;54892;47.488;19.026;2023-12-20T12:13:19;99517.75;;;5.92;89.80
68107;BME280;54892;47.488;19.026;2023-12-20T12:16:42;99531.84;;;6.20;88.44
68107;BME280;54892;47.488;19.026;2023-12-20T12:20:08;99506.13;;;6.34;87.09
68107;BME280;54892;47.488;19.026;2023-12-20T12:23:31;99521.72;;;6.40;87.23
68107;BME280;54892;47.488;19.026;2023-12-20T12:26:57;99519.88;;;6.41;86.05
68107;BME280;54892;47.488;19.026;2023-12-20T12:30:20;99535.59;;;6.41;86.01
68107;BME280;54892;47.488;19.026;2023-12-20T12:33:43;99527.16;;;6.39;85.07
68107;BME280;54892;47.488;19.026;2023-12-20T12:37:08;99532.34;;;6.34;85.25
68107;BME280;54892;47.488;19.026;2023-12-20T12:40:34;99536.47;;;6.30;84.82
68107;BME280;54892;47.488;19.026;2023-12-20T12:43:58;99531.06;;;6.19;85.02
68107;BME280;54892;47.488;19.026;2023-12-20T12:47:22;99517.31;;;6.12;85.39
68107;BME280;54892;47.488;19.026;2023-12-20T12:50:45;99531.28;;;6.01;85.92
68107;BME280;54892;47.488;19.026;2023-12-20T12:54:10;99533.16;;;5.88;86.46
68107;BME280;54892;47.488;19.026;2023-12-20T12:57:35;99522.66;;;5.88;86.53
68107;BME280;54892;47.488;19.026;2023-12-20T13:00:58;99526.31;;;5.87;86.47
68107;BME280;54892;47.488;19.026;2023-12-20T13:04:21;99527.25;;;5.81;86.09
68107;BME280;54892;47.488;19.026;2023-12-20T13:07:44;99524.56;;;5.76;86.35
68107;BME280;54892;47.488;19.026;2023-12-20T13:11:09;99518.66;;;5.69;86.23
68107;BME280;54892;47.488;19.026;2023-12-20T13:14:33;99534.50;;;5.62;86.37
68107;BME280;54892;47.488;19.026;2023-12-20T13:17:56;99521.44;;;5.50;86.67
68107;BME280;54892;47.488;19.026;2023-12-20T13:21:20;99525.75;;;5.56;86.46
68107;BME280;54892;47.488;19.026;2023-12-20T13:24:43;99516.03;;;5.40;87.17
68107;BME280;54892;47.488;19.026;2023-12-20T13:28:07;99517.41;;;5.30;87.19
68107;BME280;54892;47.488;19.026;2023-12-20T13:31:31;99514.56;;;5.32;86.87
68107;BME280;54892;47.488;19.026;2023-12-20T13:34:54;99512.87;;;5.26;87.15
68107;BME280;54892;47.488;19.026;2023-12-20T13:38:18;99517.53;;;5.24;86.74
68107;BME280;54892;47.488;19.026;2023-12-20T13:41:41;99514.84;;;5.18;86.50
68107;BME280;54892;47.488;19.026;2023-12-20T13:45:07;99519.94;;;5.13;86.60
68107;BME280;54892;47.488;19.026;2023-12-20T13:48:30;99522.38;;;5.03;87.45
68107;BME280;54892;47.488;19.026;2023-12-20T13:51:53;99522.13;;;5.05;87.00
68107;BME280;54892;47.488;19.026;2023-12-20T13:55:17;99525.44;;;5.00;87.05
68107;BME280;54892;47.488;19.026;2023-12-20T13:58:43;99515.22;;;4.86;88.10
68107;BME280;54892;47.488;19.026;2023-12-20T14:02:09;99521.09;;;4.94;87.45
68107;BME280;54892;47.488;19.026;2023-12-20T14:05:32;99511.34;;;4.89;88.21
68107;BME280;54892;47.488;19.026;2023-12-20T14:08:55;99515.09;;;4.93;88.07
68107;BME280;54892;47.488;19.026;2023-12-20T14:12:18;99520.91;;;4.95;88.58
68107;BME280;54892;47.488;19.026;2023-12-20T14:15:42;99522.00;;;4.99;88.33
68107;BME280;54892;47.488;19.026;2023-12-20T14:19:06;99542.59;;;4.96;89.04
68107;BME280;54892;47.488;19.026;2023-12-20T14:22:31;99540.31;;;5.11;88.28
68107;BME280;54892;47.488;19.026;2023-12-20T14:25:54;99534.94;;;5.18;87.52
68107;BME280;54892;47.488;19.026;2023-12-20T14:29:17;99524.03;;;5.09;87.67
68107;BME280;54892;47.488;19.026;2023-12-20T14:32:41;99528.50;;;4.97;88.56
68107;BME280;54892;47.488;19.026;2023-12-20T14:36:07;99521.22;;;4.99;88.29
68107;BME280;54892;47.488;19.026;2023-12-20T14:39:30;99531.59;;;4.82;89.43
68107;BME280;54892;47.488;19.026;2023-12-20T14:42:53;99533.84;;;4.90;88.74
68107;BME280;54892;47.488;19.026;2023-12-20T14:46:16;99536.91;;;4.87;88.18
68107;BME280;54892;47.488;19.026;2023-12-20T14:49:41;99553.41;;;4.76;88.92
68107;BME280;54892;47.488;19.026;2023-12-20T14:53:06;99548.06;;;4.82;88.64
68107;BME280;54892;47.488;19.026;2023-12-20T14:56:29;99558.78;;;4.81;88.19
68107;BME280;54892;47.488;19.026;2023-12-20T14:59:52;99545.69;;;4.81;88.42
68107;BME280;54892;47.488;19.026;2023-12-20T15:03:16;99569.34;;;4.74;88.81
68107;BME280;54892;47.488;19.026;2023-12-20T15:06:40;99581.16;;;4.77;88.43
68107;BME280;54892;47.488;19.026;2023-12-20T15:10:06;99578.84;;;4.68;88.78
68107;BME280;54892;47.488;19.026;2023-12-20T15:13:29;99576.16;;;4.63;89.08
68107;BME280;54892;47.488;19.026;2023-12-20T15:16:53;99577.25;;;4.67;88.97
68107;BME280;54892;47.488;19.026;2023-12-20T15:20:16;99585.56;;;4.76;88.74
68107;BME280;54892;47.488;19.026;2023-12-20T15:23:40;99595.81;;;4.78;88.36
68107;BME280;54892;47.488;19.026;2023-12-20T15:27:07;99602.84;;;4.77;88.08
68107;BME280;54892;47.488;19.026;2023-12-20T15:30:30;99604.13;;;4.75;88.15
68107;BME280;54892;47.488;19.026;2023-12-20T15:33:53;99599.59;;;4.82;87.75
68107;BME280;54892;47.488;19.026;2023-12-20T15:37:16;99608.44;;;4.81;87.83
68107;BME280;54892;47.488;19.026;2023-12-20T15:40:39;99616.94;;;4.76;88.02
68107;BME280;54892;47.488;19.026;2023-12-20T15:44:04;99611.28;;;4.79;87.99
68107;BME280;54892;47.488;19.026;2023-12-20T15:47:27;99616.16;;;4.76;88.43
68107;BME280;54892;47.488;19.026;2023-12-20T15:50:50;99617.41;;;4.73;88.52
68107;BME280;54892;47.488;19.026;2023-12-20T15:54:13;99622.75;;;4.66;89.03
68107;BME280;54892;47.488;19.026;2023-12-20T15:57:36;99608.97;;;4.59;89.37
68107;BME280;54892;47.488;19.026;2023-12-20T16:01:03;99621.72;;;4.67;89.46
68107;BME280;54892;47.488;19.026;2023-12-20T16:04:27;99637.72;;;4.59;89.90
68107;BME280;54892;47.488;19.026;2023-12-20T16:07:50;99636.94;;;4.59;90.51
68107;BME280;54892;47.488;19.026;2023-12-20T16:11:13;99642.25;;;4.52;91.14
68107;BME280;54892;47.488;19.026;2023-12-20T16:14:36;99637.81;;;4.52;91.13
68107;BME280;54892;47.488;19.026;2023-12-20T16:18:01;99631.69;;;4.47;91.72
68107;BME280;54892;47.488;19.026;2023-12-20T16:21:24;99632.59;;;4.52;91.96
68107;BME280;54892;47.488;19.026;2023-12-20T16:24:47;99645.66;;;4.52;92.39
68107;BME280;54892;47.488;19.026;2023-12-20T16:28:11;99649.53;;;4.50;92.74
68107;BME280;54892;47.488;19.026;2023-12-20T16:31:34;99654.44;;;4.58;92.89
68107;BME280;54892;47.488;19.026;2023-12-20T16:34:58;99640.91;;;4.61;92.77
68107;BME280;54892;47.488;19.026;2023-12-20T16:38:23;99639.88;;;4.50;93.27
68107;BME280;54892;47.488;19.026;2023-12-20T16:41:46;99628.16;;;4.53;92.83
68107;BME280;54892;47.488;19.026;2023-12-20T16:45:09;99648.72;;;4.49;92.39
68107;BME280;54892;47.488;19.026;2023-12-20T16:48:32;99644.63;;;4.41;92.67
68107;BME280;54892;47.488;19.026;2023-12-20T16:51:57;99654.72;;;4.38;92.75
68107;BME280;54892;47.488;19.026;2023-12-20T16:55:20;99663.44;;;4.32;92.80
68107;BME280;54892;47.488;19.026;2023-12-20T16:58:43;99654.66;;;4.26;92.92
68107;BME280;54892;47.488;19.026;2023-12-20T17:02:06;99671.25;;;4.20;93.10
68107;BME280;54892;47.488;19.026;2023-12-20T17:05:30;99676.00;;;4.23;92.73
68107;BME280;54892;47.488;19.026;2023-12-20T17:08:54;99685.66;;;4.22;92.72
68107;BME280;54892;47.488;19.026;2023-12-20T17:12:18;99683.94;;;4.16;92.78
68107;BME280;54892;47.488;19.026;2023-12-20T17:15:41;99699.91;;;4.08;93.12
68107;BME280;54892;47.488;19.026;2023-12-20T17:19:04;99695.47;;;4.08;93.27
68107;BME280;54892;47.488;19.026;2023-12-20T17:22:27;99700.69;;;4.08;93.33
68107;BME280;54892;47.488;19.026;2023-12-20T17:25:51;99686.09;;;4.19;93.02
68107;BME280;54892;47.488;19.026;2023-12-20T17:29:14;99693.72;;;4.21;92.79
68107;BME280;54892;47.488;19.026;2023-12-20T17:32:37;99697.47;;;4.25;92.58
68107;BME280;54892;47.488;19.026;2023-12-20T17:36:01;99691.34;;;4.19;92.84
68107;BME280;54892;47.488;19.026;2023-12-20T17:39:25;99707.00;;;4.19;92.83
68107;BME280;54892;47.488;19.026;2023-12-20T17:42:49;99711.28;;;4.14;93.05